sensor_id;sensor_type;location;lat;lon;timestamp;pressure;altitude;pressure_sealevel;temperature;humidity
25232;BME280;13176;51.140;6.290;2023-01-29T00:01:41;102341.22;;;1.51;69.23
25232;BME280;13176;51.140;6.290;2023-01-29T00:04:07;102324.47;;;1.24;69.54
25232;BME280;13176;51.140;6.290;2023-01-29T00:06:34;102388.84;;;1.43;70.17
25232;BME280;13176;51.140;6.290;2023-01-29T00:09:00;102353.84;;;1.29;70.27
25232;BME280;13176;51.140;6.290;2023-01-29T00:11:26;102368.28;;;1.43;70.48
25232;BME280;13176;51.140;6.290;2023-01-29T00:13:53;102368.41;;;1.46;70.85
25232;BME280;13176;51.140;6.290;2023-01-29T00:16:19;102346.66;;;1.40;70.89
25232;BME280;13176;51.140;6.290;2023-01-29T00:18:46;102346.31;;;1.50;69.66
25232;BME280;13176;51.140;6.290;2023-01-29T00:21:14;102324.47;;;1.42;69.48
25232;BME280;13176;51.140;6.290;2023-01-29T00:23:41;102357.72;;;1.55;69.82
25232;BME280;13176;51.140;6.290;2023-01-29T00:26:08;102369.31;;;1.64;69.92
25232;BME280;13176;51.140;6.290;2023-01-29T00:28:35;102328.22;;;1.31;70.06
25232;BME280;13176;51.140;6.290;2023-01-29T00:31:10;102327.13;;;1.26;69.89
25232;BME280;13176;51.140;6.290;2023-01-29T00:33:36;102309.53;;;1.17;69.25
25232;BME280;13176;51.140;6.290;2023-01-29T00:36:08;102355.19;;;1.56;69.66
25232;BME280;13176;51.140;6.290;2023-01-29T00:38:36;102342.41;;;1.40;69.18
25232;BME280;13176;51.140;6.290;2023-01-29T00:41:14;102371.38;;;1.54;69.79
25232;BME280;13176;51.140;6.290;2023-01-29T00:44:00;102364.38;;;1.51;69.94
25232;BME280;13176;51.140;6.290;2023-01-29T00:46:45;102338.75;;;1.35;68.92
25232;BME280;13176;51.140;6.290;2023-01-29T00:49:11;102296.75;;;1.02;69.90
25232;BME280;13176;51.140;6.290;2023-01-29T00:51:38;102324.28;;;1.04;70.25
25232;BME280;13176;51.140;6.290;2023-01-29T00:54:05;102319.25;;;0.90;70.70
25232;BME280;13176;51.140;6.290;2023-01-29T00:56:36;102312.66;;;0.95;70.39
25232;BME280;13176;51.140;6.290;2023-01-29T00:59:03;102324.06;;;1.00;71.00
25232;BME280;13176;51.140;6.290;2023-01-29T01:01:29;102314.13;;;0.90;70.49
25232;BME280;13176;51.140;6.290;2023-01-29T01:04:15;102328.06;;;0.95;70.85
25232;BME280;13176;51.140;6.290;2023-01-29T01:06:41;102319.59;;;0.80;71.02
25232;BME280;13176;51.140;6.290;2023-01-29T01:09:09;102357.31;;;0.97;71.12
25232;BME280;13176;51.140;6.290;2023-01-29T01:11:54;102343.00;;;0.86;71.46
25232;BME280;13176;51.140;6.290;2023-01-29T01:14:20;102360.88;;;1.16;71.17
25232;BME280;13176;51.140;6.290;2023-01-29T01:16:47;102332.88;;;1.05;70.83
25232;BME280;13176;51.140;6.290;2023-01-29T01:19:14;102368.97;;;1.23;70.52
25232;BME280;13176;51.140;6.290;2023-01-29T01:21:41;102331.34;;;1.08;70.77
25232;BME280;13176;51.140;6.290;2023-01-29T01:24:11;102345.09;;;1.09;70.53
25232;BME280;13176;51.140;6.290;2023-01-29T01:26:38;102290.03;;;0.88;69.88
25232;BME280;13176;51.140;6.290;2023-01-29T01:29:05;102337.38;;;1.09;70.88
25232;BME280;13176;51.140;6.290;2023-01-29T01:31:31;102325.34;;;1.08;70.23
25232;BME280;13176;51.140;6.290;2023-01-29T01:33:57;102313.34;;;1.08;69.83
25232;BME280;13176;51.140;6.290;2023-01-29T01:36:24;102304.63;;;1.05;70.36
25232;BME280;13176;51.140;6.290;2023-01-29T01:38:50;102332.97;;;1.23;70.55
25232;BME280;13176;51.140;6.290;2023-01-29T01:41:20;102288.81;;;0.97;70.95
25232;BME280;13176;51.140;6.290;2023-01-29T01:43:54;102317.53;;;1.06;71.00
25232;BME280;13176;51.140;6.290;2023-01-29T01:46:23;102237.31;;;0.61;71.14
25232;BME280;13176;51.140;6.290;2023-01-29T01:48:54;102276.41;;;0.89;71.26
25232;BME280;13176;51.140;6.290;2023-01-29T01:51:25;102303.41;;;0.98;70.81
25232;BME280;13176;51.140;6.290;2023-01-29T01:54:00;102256.09;;;0.60;71.39
25232;BME280;13176;51.140;6.290;2023-01-29T01:56:32;102291.34;;;0.80;71.44
25232;BME280;13176;51.140;6.290;2023-01-29T01:59:06;102272.66;;;0.66;70.84
25232;BME280;13176;51.140;6.290;2023-01-29T02:01:34;102291.16;;;0.93;71.20
25232;BME280;13176;51.140;6.290;2023-01-29T02:04:05;102295.50;;;0.94;70.56
25232;BME280;13176;51.140;6.290;2023-01-29T02:06:51;102295.66;;;0.97;70.39
25232;BME280;13176;51.140;6.290;2023-01-29T02:09:45;102310.91;;;0.94;70.43
25232;BME280;13176;51.140;6.290;2023-01-29T02:12:15;102307.22;;;0.89;70.97
25232;BME280;13176;51.140;6.290;2023-01-29T02:14:42;102271.97;;;0.69;71.07
25232;BME280;13176;51.140;6.290;2023-01-29T02:17:14;102287.97;;;0.81;70.76
25232;BME280;13176;51.140;6.290;2023-01-29T02:28:20;102229.00;;;0.01;70.94
25232;BME280;13176;51.140;6.290;2023-01-29T02:31:05;102361.03;;;0.70;71.22
25232;BME280;13176;51.140;6.290;2023-01-29T02:36:41;102366.44;;;0.76;71.89
25232;BME280;13176;51.140;6.290;2023-01-29T02:45:04;102322.03;;;0.61;71.06
25232;BME280;13176;51.140;6.290;2023-01-29T02:47:33;102375.75;;;0.90;70.73
25232;BME280;13176;51.140;6.290;2023-01-29T02:50:14;102341.66;;;0.60;71.23
25232;BME280;13176;51.140;6.290;2023-01-29T02:52:58;102378.66;;;0.96;71.49
25232;BME280;13176;51.140;6.290;2023-01-29T02:55:53;102363.88;;;0.92;70.27
25232;BME280;13176;51.140;6.290;2023-01-29T02:58:35;102325.06;;;0.70;70.59
25232;BME280;13176;51.140;6.290;2023-01-29T03:01:32;102362.28;;;0.94;70.83
25232;BME280;13176;51.140;6.290;2023-01-29T03:04:04;102320.22;;;0.92;71.27
25232;BME280;13176;51.140;6.290;2023-01-29T03:06:42;102298.41;;;0.84;71.02
25232;BME280;13176;51.140;6.290;2023-01-29T03:09:20;102348.59;;;1.10;70.97
25232;BME280;13176;51.140;6.290;2023-01-29T03:11:52;102291.75;;;0.71;71.33
25232;BME280;13176;51.140;6.290;2023-01-29T03:14:33;102320.88;;;0.88;71.50
25232;BME280;13176;51.140;6.290;2023-01-29T03:17:34;102304.81;;;0.76;72.06
25232;BME280;13176;51.140;6.290;2023-01-29T03:20:04;102341.72;;;0.94;72.06
25232;BME280;13176;51.140;6.290;2023-01-29T03:22:35;102311.28;;;0.68;71.62
25232;BME280;13176;51.140;6.290;2023-01-29T03:25:03;102323.59;;;0.75;72.12
25232;BME280;13176;51.140;6.290;2023-01-29T03:27:56;102355.84;;;1.02;71.58
25232;BME280;13176;51.140;6.290;2023-01-29T03:30:47;102358.75;;;0.92;72.30
25232;BME280;13176;51.140;6.290;2023-01-29T03:33:47;102327.38;;;0.65;72.30
25232;BME280;13176;51.140;6.290;2023-01-29T03:36:29;102337.81;;;0.68;72.59
25232;BME280;13176;51.140;6.290;2023-01-29T03:39:07;102350.19;;;0.75;72.40
25232;BME280;13176;51.140;6.290;2023-01-29T03:41:38;102358.63;;;0.73;72.88
25232;BME280;13176;51.140;6.290;2023-01-29T03:44:14;102341.50;;;0.73;72.47
25232;BME280;13176;51.140;6.290;2023-01-29T03:50:19;102346.59;;;0.72;72.57
25232;BME280;13176;51.140;6.290;2023-01-29T04:01:00;102318.03;;;0.66;72.94
25232;BME280;13176;51.140;6.290;2023-01-29T04:03:34;102346.38;;;0.85;72.71
25232;BME280;13176;51.140;6.290;2023-01-29T04:06:14;102324.41;;;0.74;73.00
25232;BME280;13176;51.140;6.290;2023-01-29T04:09:07;102341.34;;;0.86;73.42
25232;BME280;13176;51.140;6.290;2023-01-29T04:11:37;102334.50;;;0.87;73.41
25232;BME280;13176;51.140;6.290;2023-01-29T04:14:06;102336.44;;;0.91;72.91
25232;BME280;13176;51.140;6.290;2023-01-29T04:16:36;102313.66;;;0.81;73.23
25232;BME280;13176;51.140;6.290;2023-01-29T04:19:04;102265.56;;;0.61;73.38
25232;BME280;13176;51.140;6.290;2023-01-29T04:21:31;102276.66;;;0.77;72.95
25232;BME280;13176;51.140;6.290;2023-01-29T04:23:58;102274.16;;;0.79;73.36
25232;BME280;13176;51.140;6.290;2023-01-29T04:26:31;102310.34;;;1.16;73.15
25232;BME280;13176;51.140;6.290;2023-01-29T04:31:53;102311.47;;;1.21;73.67
25232;BME280;13176;51.140;6.290;2023-01-29T04:37:14;102298.31;;;1.15;73.40
25232;BME280;13176;51.140;6.290;2023-01-29T04:39:47;102295.25;;;1.22;73.86
25232;BME280;13176;51.140;6.290;2023-01-29T04:43:03;102263.78;;;1.10;73.58
25232;BME280;13176;51.140;6.290;2023-01-29T04:50:47;102293.34;;;1.36;74.31
25232;BME280;13176;51.140;6.290;2023-01-29T04:53:28;102297.75;;;1.38;74.60
25232;BME280;13176;51.140;6.290;2023-01-29T04:56:22;102250.59;;;1.20;74.47
25232;BME280;13176;51.140;6.290;2023-01-29T04:58:56;102251.19;;;1.32;74.21
25232;BME280;13176;51.140;6.290;2023-01-29T05:01:25;102274.22;;;1.48;73.97
25232;BME280;13176;51.140;6.290;2023-01-29T05:03:55;102267.31;;;1.47;74.46
25232;BME280;13176;51.140;6.290;2023-01-29T05:06:23;102268.97;;;1.45;74.68
25232;BME280;13176;51.140;6.290;2023-01-29T05:08:51;102260.31;;;1.43;74.34
25232;BME280;13176;51.140;6.290;2023-01-29T05:11:17;102267.78;;;1.56;74.80
25232;BME280;13176;51.140;6.290;2023-01-29T05:13:45;102252.03;;;1.50;74.59
25232;BME280;13176;51.140;6.290;2023-01-29T05:16:16;102275.63;;;1.59;74.17
25232;BME280;13176;51.140;6.290;2023-01-29T05:18:46;102247.50;;;1.45;74.53
25232;BME280;13176;51.140;6.290;2023-01-29T05:21:12;102228.75;;;1.47;74.14
25232;BME280;13176;51.140;6.290;2023-01-29T05:23:39;102205.63;;;1.47;73.95
25232;BME280;13176;51.140;6.290;2023-01-29T05:26:19;102216.50;;;1.42;74.50
25232;BME280;13176;51.140;6.290;2023-01-29T05:29:04;102164.03;;;1.19;74.52
25232;BME280;13176;51.140;6.290;2023-01-29T05:31:31;102237.81;;;1.57;74.44
25232;BME280;13176;51.140;6.290;2023-01-29T05:33:57;102235.91;;;1.53;73.95
25232;BME280;13176;51.140;6.290;2023-01-29T05:36:23;102222.81;;;1.48;74.24
25232;BME280;13176;51.140;6.290;2023-01-29T05:38:51;102213.44;;;1.31;73.91
25232;BME280;13176;51.140;6.290;2023-01-29T05:41:18;102213.94;;;1.42;74.07
25232;BME280;13176;51.140;6.290;2023-01-29T05:43:44;102256.44;;;1.70;73.99
25232;BME280;13176;51.140;6.290;2023-01-29T05:46:11;102205.50;;;1.44;74.09
25232;BME280;13176;51.140;6.290;2023-01-29T05:48:37;102198.63;;;1.43;73.65
25232;BME280;13176;51.140;6.290;2023-01-29T05:51:04;102224.19;;;1.59;74.24
25232;BME280;13176;51.140;6.290;2023-01-29T05:53:31;102214.72;;;1.58;73.52
25232;BME280;13176;51.140;6.290;2023-01-29T05:56:00;102242.56;;;1.67;73.48
25232;BME280;13176;51.140;6.290;2023-01-29T05:58:29;102243.78;;;1.75;73.49
25232;BME280;13176;51.140;6.290;2023-01-29T06:00:56;102241.31;;;1.76;73.72
25232;BME280;13176;51.140;6.290;2023-01-29T06:03:22;102220.00;;;1.61;73.82
25232;BME280;13176;51.140;6.290;2023-01-29T06:05:49;102202.13;;;1.45;73.65
25232;BME280;13176;51.140;6.290;2023-01-29T06:08:15;102247.63;;;1.65;73.65
25232;BME280;13176;51.140;6.290;2023-01-29T06:10:41;102272.47;;;1.65;74.86
25232;BME280;13176;51.140;6.290;2023-01-29T06:13:08;102251.00;;;1.64;74.07
25232;BME280;13176;51.140;6.290;2023-01-29T06:15:34;102262.16;;;1.65;74.07
25232;BME280;13176;51.140;6.290;2023-01-29T06:18:00;102240.88;;;1.67;74.23
25232;BME280;13176;51.140;6.290;2023-01-29T06:20:26;102244.25;;;1.66;74.17
25232;BME280;13176;51.140;6.290;2023-01-29T06:22:53;102200.38;;;1.44;73.84
25232;BME280;13176;51.140;6.290;2023-01-29T06:25:19;102281.53;;;1.93;74.08
25232;BME280;13176;51.140;6.290;2023-01-29T06:27:49;102273.47;;;1.86;74.03
25232;BME280;13176;51.140;6.290;2023-01-29T06:30:16;102268.13;;;1.81;74.16
25232;BME280;13176;51.140;6.290;2023-01-29T06:32:42;102244.41;;;1.69;73.90
25232;BME280;13176;51.140;6.290;2023-01-29T06:35:09;102287.03;;;2.01;73.54
25232;BME280;13176;51.140;6.290;2023-01-29T06:37:37;102248.41;;;1.82;73.83
25232;BME280;13176;51.140;6.290;2023-01-29T06:40:04;102275.91;;;2.02;73.55
25232;BME280;13176;51.140;6.290;2023-01-29T06:42:30;102287.25;;;2.05;73.86
25232;BME280;13176;51.140;6.290;2023-01-29T06:44:56;102304.88;;;2.15;73.10
25232;BME280;13176;51.140;6.290;2023-01-29T06:47:23;102310.03;;;2.15;73.21
25232;BME280;13176;51.140;6.290;2023-01-29T06:49:50;102270.81;;;1.84;73.89
25232;BME280;13176;51.140;6.290;2023-01-29T06:52:16;102289.47;;;1.98;74.39
25232;BME280;13176;51.140;6.290;2023-01-29T06:54:43;102276.53;;;1.96;74.56
25232;BME280;13176;51.140;6.290;2023-01-29T06:57:09;102271.06;;;2.08;73.81
25232;BME280;13176;51.140;6.290;2023-01-29T06:59:35;102263.13;;;2.03;73.76
25232;BME280;13176;51.140;6.290;2023-01-29T07:02:02;102225.22;;;1.99;73.95
25232;BME280;13176;51.140;6.290;2023-01-29T07:04:29;102230.78;;;2.08;73.45
25232;BME280;13176;51.140;6.290;2023-01-29T07:06:55;102217.53;;;2.01;73.54
25232;BME280;13176;51.140;6.290;2023-01-29T07:09:21;102253.66;;;2.21;73.19
25232;BME280;13176;51.140;6.290;2023-01-29T07:11:48;102234.22;;;2.09;73.64
25232;BME280;13176;51.140;6.290;2023-01-29T07:14:14;102249.88;;;2.13;73.53
25232;BME280;13176;51.140;6.290;2023-01-29T07:16:41;102259.56;;;2.19;73.48
25232;BME280;13176;51.140;6.290;2023-01-29T07:19:07;102252.47;;;2.13;73.44
25232;BME280;13176;51.140;6.290;2023-01-29T07:21:33;102264.22;;;2.27;73.06
25232;BME280;13176;51.140;6.290;2023-01-29T07:24:00;102258.94;;;2.24;73.68
25232;BME280;13176;51.140;6.290;2023-01-29T07:26:26;102243.09;;;2.15;73.56
25232;BME280;13176;51.140;6.290;2023-01-29T07:28:53;102229.00;;;2.07;74.06
25232;BME280;13176;51.140;6.290;2023-01-29T07:31:19;102247.50;;;2.18;73.57
25232;BME280;13176;51.140;6.290;2023-01-29T07:33:46;102245.34;;;2.26;73.59
25232;BME280;13176;51.140;6.290;2023-01-29T07:36:13;102201.91;;;1.96;73.90
25232;BME280;13176;51.140;6.290;2023-01-29T07:38:40;102243.63;;;2.27;73.75
25232;BME280;13176;51.140;6.290;2023-01-29T07:41:06;102229.81;;;2.25;73.78
25232;BME280;13176;51.140;6.290;2023-01-29T07:43:34;102225.56;;;2.25;73.12
25232;BME280;13176;51.140;6.290;2023-01-29T07:46:02;102271.78;;;2.62;73.28
25232;BME280;13176;51.140;6.290;2023-01-29T07:48:28;102231.31;;;2.39;73.24
25232;BME280;13176;51.140;6.290;2023-01-29T07:50:55;102262.88;;;2.54;72.67
25232;BME280;13176;51.140;6.290;2023-01-29T07:53:22;102262.06;;;2.55;73.37
25232;BME280;13176;51.140;6.290;2023-01-29T07:55:48;102214.38;;;2.25;73.58
25232;BME280;13176;51.140;6.290;2023-01-29T07:58:15;102235.00;;;2.45;73.20
25232;BME280;13176;51.140;6.290;2023-01-29T08:00:41;102260.94;;;2.69;73.12
25232;BME280;13176;51.140;6.290;2023-01-29T08:03:14;102265.38;;;2.71;72.80
25232;BME280;13176;51.140;6.290;2023-01-29T08:05:42;102255.78;;;2.69;73.21
25232;BME280;13176;51.140;6.290;2023-01-29T08:08:09;102228.59;;;2.55;73.22
25232;BME280;13176;51.140;6.290;2023-01-29T08:10:38;102256.06;;;2.75;73.71
25232;BME280;13176;51.140;6.290;2023-01-29T08:13:05;102229.25;;;2.51;73.91
25232;BME280;13176;51.140;6.290;2023-01-29T08:15:32;102263.78;;;2.75;73.30
25232;BME280;13176;51.140;6.290;2023-01-29T08:18:01;102265.13;;;2.86;73.27
25232;BME280;13176;51.140;6.290;2023-01-29T08:20:27;102235.31;;;2.72;72.95
25232;BME280;13176;51.140;6.290;2023-01-29T08:23:02;102268.88;;;2.94;72.93
25232;BME280;13176;51.140;6.290;2023-01-29T08:25:29;102250.91;;;2.75;73.71
25232;BME280;13176;51.140;6.290;2023-01-29T08:27:57;102241.47;;;2.75;73.31
25232;BME280;13176;51.140;6.290;2023-01-29T08:30:25;102250.34;;;2.82;73.17
25232;BME280;13176;51.140;6.290;2023-01-29T08:32:52;102227.84;;;2.78;72.78
25232;BME280;13176;51.140;6.290;2023-01-29T08:35:18;102267.25;;;2.96;73.33
25232;BME280;13176;51.140;6.290;2023-01-29T08:37:57;102283.63;;;3.17;72.64
25232;BME280;13176;51.140;6.290;2023-01-29T08:40:28;102280.22;;;3.18;72.53
25232;BME280;13176;51.140;6.290;2023-01-29T08:43:04;102239.50;;;2.89;72.97
25232;BME280;13176;51.140;6.290;2023-01-29T08:45:36;102276.06;;;3.21;72.57
25232;BME280;13176;51.140;6.290;2023-01-29T08:48:03;102223.78;;;3.03;72.83
25232;BME280;13176;51.140;6.290;2023-01-29T08:50:30;102223.78;;;3.03;72.83
25232;BME280;13176;51.140;6.290;2023-01-29T08:52:59;102216.22;;;3.08;72.71
25232;BME280;13176;51.140;6.290;2023-01-29T08:55:26;102158.53;;;2.84;72.74
25232;BME280;13176;51.140;6.290;2023-01-29T08:57:53;102170.59;;;2.85;72.01
25232;BME280;13176;51.140;6.290;2023-01-29T09:00:20;102200.75;;;3.08;72.67
25232;BME280;13176;51.140;6.290;2023-01-29T09:02:46;102239.53;;;3.31;72.56
25232;BME280;13176;51.140;6.290;2023-01-29T09:05:13;102178.25;;;2.83;73.65
25232;BME280;13176;51.140;6.290;2023-01-29T09:07:40;102200.38;;;2.99;72.76
25232;BME280;13176;51.140;6.290;2023-01-29T09:10:07;102238.19;;;3.40;72.32
25232;BME280;13176;51.140;6.290;2023-01-29T09:12:34;102205.22;;;3.12;73.08
25232;BME280;13176;51.140;6.290;2023-01-29T09:15:00;102197.41;;;3.10;73.17
25232;BME280;13176;51.140;6.290;2023-01-29T09:17:26;102203.00;;;3.21;72.92
25232;BME280;13176;51.140;6.290;2023-01-29T09:19:53;102193.84;;;3.29;72.81
25232;BME280;13176;51.140;6.290;2023-01-29T09:22:19;102187.66;;;3.24;72.63
25232;BME280;13176;51.140;6.290;2023-01-29T09:24:45;102201.59;;;3.29;72.09
25232;BME280;13176;51.140;6.290;2023-01-29T09:27:12;102198.78;;;3.44;72.81
25232;BME280;13176;51.140;6.290;2023-01-29T09:29:38;102181.56;;;3.43;72.03
25232;BME280;13176;51.140;6.290;2023-01-29T09:32:05;102230.94;;;3.74;71.89
25232;BME280;13176;51.140;6.290;2023-01-29T09:34:32;102167.50;;;3.35;71.96
25232;BME280;13176;51.140;6.290;2023-01-29T09:36:58;102183.31;;;3.44;72.52
25232;BME280;13176;51.140;6.290;2023-01-29T09:39:25;102155.66;;;3.40;72.25
25232;BME280;13176;51.140;6.290;2023-01-29T09:47:14;102190.09;;;3.64;72.88
25232;BME280;13176;51.140;6.290;2023-01-29T09:49:55;102151.38;;;3.41;72.44
25232;BME280;13176;51.140;6.290;2023-01-29T09:52:28;102132.31;;;3.37;72.81
25232;BME280;13176;51.140;6.290;2023-01-29T09:55:11;102205.72;;;3.89;72.94
25232;BME280;13176;51.140;6.290;2023-01-29T09:57:47;102203.47;;;3.98;72.69
25232;BME280;13176;51.140;6.290;2023-01-29T10:00:29;102177.31;;;3.67;73.02
25232;BME280;13176;51.140;6.290;2023-01-29T10:03:14;102201.09;;;4.04;71.95
25232;BME280;13176;51.140;6.290;2023-01-29T10:06:04;102197.03;;;3.87;72.44
25232;BME280;13176;51.140;6.290;2023-01-29T10:08:51;102198.56;;;3.82;72.75
25232;BME280;13176;51.140;6.290;2023-01-29T10:11:28;102189.78;;;4.01;72.67
25232;BME280;13176;51.140;6.290;2023-01-29T10:14:09;102189.09;;;4.06;72.33
25232;BME280;13176;51.140;6.290;2023-01-29T10:20:01;102189.44;;;4.39;71.19
25232;BME280;13176;51.140;6.290;2023-01-29T10:25:10;102195.06;;;4.27;71.28
25232;BME280;13176;51.140;6.290;2023-01-29T10:27:39;102184.06;;;4.09;72.10
25232;BME280;13176;51.140;6.290;2023-01-29T10:30:25;102191.88;;;4.34;71.57
25232;BME280;13176;51.140;6.290;2023-01-29T10:32:54;102143.75;;;4.13;71.46
25232;BME280;13176;51.140;6.290;2023-01-29T10:35:33;102192.28;;;4.46;71.03
25232;BME280;13176;51.140;6.290;2023-01-29T10:41:13;102190.84;;;4.54;70.96
25232;BME280;13176;51.140;6.290;2023-01-29T10:49:17;102184.44;;;4.68;70.92
25232;BME280;13176;51.140;6.290;2023-01-29T10:52:02;102174.59;;;4.83;71.17
25232;BME280;13176;51.140;6.290;2023-01-29T11:00:23;102142.88;;;4.62;70.45
25232;BME280;13176;51.140;6.290;2023-01-29T11:02:50;102140.81;;;4.52;71.45
25232;BME280;13176;51.140;6.290;2023-01-29T11:05:23;102136.59;;;4.54;71.08
25232;BME280;13176;51.140;6.290;2023-01-29T11:08:15;102139.22;;;4.82;70.67
25232;BME280;13176;51.140;6.290;2023-01-29T11:11:07;102120.56;;;4.64;71.31
25232;BME280;13176;51.140;6.290;2023-01-29T11:13:47;102117.34;;;4.21;71.72
25232;BME280;13176;51.140;6.290;2023-01-29T11:16:16;102114.41;;;4.36;71.02
25232;BME280;13176;51.140;6.290;2023-01-29T11:18:57;102138.97;;;4.73;70.64
25232;BME280;13176;51.140;6.290;2023-01-29T11:21:26;102133.94;;;4.77;70.38
25232;BME280;13176;51.140;6.290;2023-01-29T11:24:13;102140.38;;;4.40;71.22
25232;BME280;13176;51.140;6.290;2023-01-29T11:26:44;102115.88;;;4.79;69.76
25232;BME280;13176;51.140;6.290;2023-01-29T11:32:03;102096.50;;;4.93;69.40
25232;BME280;13176;51.140;6.290;2023-01-29T11:34:30;102092.28;;;4.95;69.78
25232;BME280;13176;51.140;6.290;2023-01-29T11:37:02;102122.28;;;5.18;69.52
25232;BME280;13176;51.140;6.290;2023-01-29T11:39:30;102091.03;;;4.84;69.40
25232;BME280;13176;51.140;6.290;2023-01-29T11:41:59;102067.66;;;5.07;68.67
25232;BME280;13176;51.140;6.290;2023-01-29T11:44:30;102033.06;;;4.76;69.29
25232;BME280;13176;51.140;6.290;2023-01-29T11:47:10;102066.94;;;5.13;68.79
25232;BME280;13176;51.140;6.290;2023-01-29T11:49:38;102058.25;;;5.11;69.14
25232;BME280;13176;51.140;6.290;2023-01-29T11:52:08;102066.88;;;5.10;68.96
25232;BME280;13176;51.140;6.290;2023-01-29T11:54:51;102066.69;;;5.04;69.34
25232;BME280;13176;51.140;6.290;2023-01-29T11:57:25;102051.19;;;5.04;69.33
25232;BME280;13176;51.140;6.290;2023-01-29T11:59:54;102041.53;;;5.28;68.59
25232;BME280;13176;51.140;6.290;2023-01-29T12:02:43;102040.31;;;5.15;69.22
25232;BME280;13176;51.140;6.290;2023-01-29T12:05:16;102064.00;;;5.29;69.43
25232;BME280;13176;51.140;6.290;2023-01-29T12:07:46;102046.34;;;5.16;69.10
25232;BME280;13176;51.140;6.290;2023-01-29T12:10:35;102016.78;;;5.36;68.60
25232;BME280;13176;51.140;6.290;2023-01-29T12:15:39;102017.06;;;5.17;68.79
25232;BME280;13176;51.140;6.290;2023-01-29T12:18:29;102026.13;;;5.31;69.06
25232;BME280;13176;51.140;6.290;2023-01-29T12:21:00;101974.34;;;5.00;68.69
25232;BME280;13176;51.140;6.290;2023-01-29T12:23:42;101993.41;;;5.33;67.88
25232;BME280;13176;51.140;6.290;2023-01-29T12:26:14;102007.53;;;5.44;68.42
25232;BME280;13176;51.140;6.290;2023-01-29T12:34:36;101952.00;;;5.33;67.53
25232;BME280;13176;51.140;6.290;2023-01-29T12:37:17;101913.69;;;5.20;67.81
25232;BME280;13176;51.140;6.290;2023-01-29T12:39:45;101928.16;;;5.43;66.44
25232;BME280;13176;51.140;6.290;2023-01-29T12:42:22;101937.69;;;5.45;66.80
25232;BME280;13176;51.140;6.290;2023-01-29T12:44:56;101961.25;;;5.56;67.53
25232;BME280;13176;51.140;6.290;2023-01-29T12:47:46;101961.09;;;5.19;68.25
25232;BME280;13176;51.140;6.290;2023-01-29T12:50:32;101930.88;;;5.18;67.70
25232;BME280;13176;51.140;6.290;2023-01-29T12:55:44;101943.69;;;5.44;67.93
25232;BME280;13176;51.140;6.290;2023-01-29T12:58:15;101939.72;;;5.57;66.99
25232;BME280;13176;51.140;6.290;2023-01-29T13:00:49;101926.53;;;5.48;67.53
25232;BME280;13176;51.140;6.290;2023-01-29T13:03:24;101926.84;;;5.59;67.69
25232;BME280;13176;51.140;6.290;2023-01-29T13:05:56;101881.69;;;5.49;67.10
25232;BME280;13176;51.140;6.290;2023-01-29T13:08:44;101902.19;;;5.73;66.99
25232;BME280;13176;51.140;6.290;2023-01-29T13:11:24;101894.19;;;5.64;66.87
25232;BME280;13176;51.140;6.290;2023-01-29T13:13:57;101862.03;;;5.55;67.03
25232;BME280;13176;51.140;6.290;2023-01-29T13:16:27;101861.22;;;5.57;66.91
25232;BME280;13176;51.140;6.290;2023-01-29T13:18:57;101863.22;;;5.67;67.19
25232;BME280;13176;51.140;6.290;2023-01-29T13:21:30;101870.22;;;5.71;67.11
25232;BME280;13176;51.140;6.290;2023-01-29T13:24:02;101877.22;;;5.75;66.77
25232;BME280;13176;51.140;6.290;2023-01-29T13:26:30;101798.75;;;5.43;66.90
25232;BME280;13176;51.140;6.290;2023-01-29T13:28:57;101892.53;;;5.99;65.94
25232;BME280;13176;51.140;6.290;2023-01-29T13:31:29;101856.81;;;5.87;65.75
25232;BME280;13176;51.140;6.290;2023-01-29T13:34:06;101888.13;;;5.96;65.58
25232;BME280;13176;51.140;6.290;2023-01-29T13:36:35;101861.47;;;5.66;65.92
25232;BME280;13176;51.140;6.290;2023-01-29T13:39:07;101881.25;;;5.98;65.03
25232;BME280;13176;51.140;6.290;2023-01-29T13:41:41;101895.13;;;6.00;65.45
25232;BME280;13176;51.140;6.290;2023-01-29T13:44:37;101894.31;;;6.03;65.58
25232;BME280;13176;51.140;6.290;2023-01-29T13:47:08;101892.53;;;6.00;65.68
25232;BME280;13176;51.140;6.290;2023-01-29T13:49:41;101903.75;;;5.99;65.85
25232;BME280;13176;51.140;6.290;2023-01-29T13:54:59;101912.56;;;6.07;65.29
25232;BME280;13176;51.140;6.290;2023-01-29T13:57:46;101916.78;;;6.04;65.42
25232;BME280;13176;51.140;6.290;2023-01-29T14:02:47;101913.94;;;5.93;65.78
25232;BME280;13176;51.140;6.290;2023-01-29T14:05:43;101908.69;;;5.90;66.20
25232;BME280;13176;51.140;6.290;2023-01-29T14:13:38;101841.13;;;5.80;65.19
25232;BME280;13176;51.140;6.290;2023-01-29T14:16:31;101893.16;;;5.90;66.18
25232;BME280;13176;51.140;6.290;2023-01-29T14:18:59;101891.56;;;5.95;65.42
25232;BME280;13176;51.140;6.290;2023-01-29T14:21:33;101893.31;;;5.96;66.00
25232;BME280;13176;51.140;6.290;2023-01-29T14:24:16;101889.09;;;5.67;66.16
25232;BME280;13176;51.140;6.290;2023-01-29T14:26:46;101883.84;;;5.98;65.59
25232;BME280;13176;51.140;6.290;2023-01-29T14:29:30;101848.13;;;5.85;65.75
25232;BME280;13176;51.140;6.290;2023-01-29T14:32:17;101844.41;;;5.74;65.69
25232;BME280;13176;51.140;6.290;2023-01-29T14:34:48;101850.72;;;5.52;66.53
25232;BME280;13176;51.140;6.290;2023-01-29T14:39:44;101838.19;;;5.68;66.17
25232;BME280;13176;51.140;6.290;2023-01-29T14:44:56;101878.09;;;5.76;66.57
25232;BME280;13176;51.140;6.290;2023-01-29T14:50:00;101859.63;;;5.62;66.60
25232;BME280;13176;51.140;6.290;2023-01-29T14:52:34;101847.75;;;5.70;65.98
25232;BME280;13176;51.140;6.290;2023-01-29T14:55:04;101861.53;;;5.69;66.50
25232;BME280;13176;51.140;6.290;2023-01-29T14:57:32;101857.56;;;5.82;66.34
25232;BME280;13176;51.140;6.290;2023-01-29T15:00:04;101834.19;;;5.47;67.15
25232;BME280;13176;51.140;6.290;2023-01-29T15:02:39;101862.66;;;5.77;66.49
25232;BME280;13176;51.140;6.290;2023-01-29T15:05:18;101879.56;;;5.99;66.02